createdAt,value
2023-10-14T00:00:48.623Z,2.90
2023-10-14T00:01:55.398Z,2.38
2023-10-14T00:03:07.698Z,2.72
2023-10-14T00:04:11.280Z,3.20
2023-10-14T00:05:16.683Z,2.97
2023-10-14T00:06:19.536Z,2.80
2023-10-14T00:07:26.832Z,3.10
2023-10-14T00:08:32.747Z,2.72
2023-10-14T00:09:43.694Z,3.08
2023-10-14T00:10:45.994Z,2.72
2023-10-14T00:11:55.333Z,3.20
2023-10-14T00:12:57.482Z,2.72
2023-10-14T00:14:03.910Z,3.70
2023-10-14T00:15:07.497Z,2.75
2023-10-14T00:16:14.725Z,2.55
2023-10-14T00:17:19.902Z,3.95
2023-10-14T00:18:22.702Z,2.83
2023-10-14T00:19:26.649Z,2.70
2023-10-14T00:20:35.740Z,3.40
2023-10-14T00:21:39.290Z,4.75
2023-10-14T00:22:41.348Z,3.67
2023-10-14T00:23:44.567Z,2.75
2023-10-14T00:24:49.849Z,2.67
2023-10-14T00:25:52.637Z,2.70
2023-10-14T00:26:56.281Z,2.70
2023-10-14T00:27:58.945Z,2.42
2023-10-14T00:29:20.372Z,2.95
2023-10-14T00:30:23.799Z,2.50
2023-10-14T00:31:27.245Z,2.70
2023-10-14T00:32:31.338Z,2.30
2023-10-14T00:33:36.551Z,2.55
2023-10-14T00:34:38.588Z,2.35
2023-10-14T00:35:43.476Z,2.70
2023-10-14T00:36:45.680Z,2.45
2023-10-14T00:37:48.757Z,3.42
2023-10-14T00:38:57.105Z,2.75
2023-10-14T00:40:11.615Z,2.72
2023-10-14T00:41:14.085Z,3.08
2023-10-14T00:42:19.174Z,2.90
2023-10-14T00:44:27.173Z,2.30
2023-10-14T00:45:29.511Z,2.38
2023-10-14T00:46:34.877Z,3.13
2023-10-14T00:47:41.169Z,2.50
2023-10-14T00:48:47.666Z,2.83
2023-10-14T00:49:53.309Z,3.08
2023-10-14T00:50:59.784Z,3.40
2023-10-14T00:52:08.169Z,2.38
2023-10-14T00:53:11.549Z,3.00
2023-10-14T00:54:26.854Z,2.70
2023-10-14T00:55:37.548Z,2.53
2023-10-14T00:56:42.055Z,2.75
2023-10-14T00:57:55.634Z,2.90
2023-10-14T00:58:59.541Z,2.97
2023-10-14T01:00:10.888Z,2.90
2023-10-14T01:01:13.402Z,2.83
2023-10-14T01:02:16.649Z,2.83
2023-10-14T01:03:18.966Z,2.33
2023-10-14T01:04:29.546Z,2.90
2023-10-14T01:05:31.621Z,2.40
2023-10-14T01:06:40.873Z,2.90
2023-10-14T01:07:43.507Z,3.17
2023-10-14T01:08:50.770Z,2.70
2023-10-14T01:09:54.259Z,2.75
2023-10-14T01:11:00.165Z,2.78
2023-10-14T01:12:17.917Z,2.53
2023-10-14T01:13:23.780Z,2.70
2023-10-14T01:14:28.305Z,2.60
2023-10-14T01:15:33.117Z,3.63
2023-10-14T01:16:38.387Z,2.72
2023-10-14T01:17:43.818Z,2.78
2023-10-14T01:19:51.481Z,3.75
2023-10-14T01:20:53.641Z,2.67
2023-10-14T01:21:59.021Z,2.60
2023-10-14T01:23:08.509Z,2.70
2023-10-14T01:24:17.862Z,2.92
2023-10-14T01:25:20.827Z,2.67
2023-10-14T01:26:23.993Z,3.45
2023-10-14T01:27:35.349Z,2.97
2023-10-14T01:28:45.063Z,2.60
2023-10-14T01:29:47.150Z,2.72
2023-10-14T01:31:25.813Z,2.38
2023-10-14T01:32:43.908Z,2.80
2023-10-14T01:33:47.186Z,2.83
2023-10-14T01:34:54.489Z,2.47
2023-10-14T01:36:00.348Z,3.05
2023-10-14T01:37:14.248Z,2.72
2023-10-14T01:38:18.758Z,2.78
2023-10-14T01:39:26.532Z,2.60
2023-10-14T01:40:37.372Z,2.13
2023-10-14T01:41:40.167Z,2.50
2023-10-14T01:42:43.278Z,2.60
2023-10-14T01:43:45.364Z,2.50
2023-10-14T01:44:50.021Z,2.80
2023-10-14T01:46:01.732Z,2.80
2023-10-14T01:47:05.668Z,2.70
2023-10-14T01:48:14.816Z,2.80
2023-10-14T01:49:20.685Z,2.65
2023-10-14T01:50:23.966Z,2.65
2023-10-14T01:51:28.054Z,2.65
2023-10-14T01:52:33.070Z,2.75
2023-10-14T01:53:39.929Z,3.60
2023-10-14T01:54:42.625Z,2.95
2023-10-14T01:55:48.299Z,2.60
2023-10-14T01:56:52.554Z,2.42
2023-10-14T01:57:55.661Z,2.92
2023-10-14T01:58:58.734Z,2.63
2023-10-14T02:00:07.349Z,2.42
2023-10-14T02:01:16.767Z,2.78
2023-10-14T02:02:22.696Z,2.92
2023-10-14T02:03:25.614Z,2.22
2023-10-14T02:04:29.363Z,3.58
2023-10-14T02:05:35.277Z,2.95
2023-10-14T02:06:44.547Z,3.38
2023-10-14T02:07:47.281Z,3.15
2023-10-14T02:08:53.399Z,2.42
2023-10-14T02:09:57.088Z,2.85
2023-10-14T02:11:00.330Z,3.15
2023-10-14T02:12:02.829Z,3.15
2023-10-14T02:13:06.261Z,3.20
2023-10-14T02:14:10.144Z,2.60
2023-10-14T02:15:14.893Z,2.72
2023-10-14T02:16:19.276Z,2.65
2023-10-14T02:17:25.159Z,2.67
2023-10-14T02:18:30.561Z,3.17
2023-10-14T02:19:38.940Z,2.75
2023-10-14T02:20:57.494Z,2.95
2023-10-14T02:22:02.150Z,2.40
2023-10-14T02:23:06.164Z,2.78
2023-10-14T02:24:12.046Z,2.90
2023-10-14T02:25:16.569Z,3.13
2023-10-14T02:26:26.140Z,2.38
2023-10-14T02:27:28.278Z,2.75
2023-10-14T02:28:41.212Z,2.90
2023-10-14T02:29:45.201Z,2.88
2023-10-14T02:30:52.682Z,3.10
2023-10-14T02:31:54.963Z,2.50
2023-10-14T02:32:58.997Z,2.58
2023-10-14T02:34:05.348Z,3.47
2023-10-14T02:35:09.298Z,2.83
2023-10-14T02:36:15.616Z,2.78
2023-10-14T02:37:23.148Z,2.75
2023-10-14T02:38:25.769Z,2.80
2023-10-14T02:39:30.176Z,3.28
2023-10-14T02:40:32.252Z,2.67
2023-10-14T02:41:35.332Z,3.10
2023-10-14T02:42:37.387Z,2.47
2023-10-14T02:43:40.780Z,2.33
2023-10-14T02:44:47.609Z,2.92
2023-10-14T02:45:50.325Z,2.20
2023-10-14T02:46:56.052Z,2.10
2023-10-14T02:48:03.064Z,2.97
2023-10-14T02:49:07.925Z,2.90
2023-10-14T02:50:12.638Z,2.42
2023-10-14T02:51:17.792Z,2.47
2023-10-14T02:52:20.989Z,2.67
2023-10-14T02:53:29.001Z,2.58
2023-10-14T02:54:45.698Z,2.25
2023-10-14T02:55:51.896Z,2.83
2023-10-14T02:56:59.908Z,2.53
2023-10-14T02:58:05.282Z,2.83
2023-10-14T02:59:09.336Z,2.20
2023-10-14T03:00:19.825Z,1.95
2023-10-14T03:01:24.997Z,2.80
2023-10-14T03:02:41.189Z,2.70
2023-10-14T03:03:44.020Z,2.63
2023-10-14T03:04:56.432Z,2.67
2023-10-14T03:06:07.141Z,2.85
2023-10-14T03:07:10.871Z,3.38
2023-10-14T03:08:13.967Z,2.88
2023-10-14T03:09:20.026Z,2.50
2023-10-14T03:10:35.379Z,2.75
2023-10-14T03:11:40.241Z,2.33
2023-10-14T03:12:44.072Z,2.10
2023-10-14T03:13:47.175Z,3.25
2023-10-14T03:14:49.770Z,2.38
2023-10-14T03:15:55.386Z,2.55
2023-10-14T03:16:59.757Z,2.47
2023-10-14T03:18:03.101Z,2.45
2023-10-14T03:19:05.529Z,2.88
2023-10-14T03:20:32.271Z,3.03
2023-10-14T03:21:35.716Z,2.60
2023-10-14T03:22:39.505Z,2.47
2023-10-14T03:23:43.195Z,2.97
2023-10-14T03:24:46.285Z,3.40
2023-10-14T03:25:51.901Z,2.10
2023-10-14T03:27:03.570Z,2.25
2023-10-14T03:28:14.670Z,3.25
2023-10-14T03:29:23.741Z,2.80
2023-10-14T03:30:26.088Z,2.30
2023-10-14T03:31:29.231Z,3.40
2023-10-14T03:32:33.970Z,2.55
2023-10-14T03:33:44.464Z,2.65
2023-10-14T03:34:48.893Z,3.10
2023-10-14T03:35:58.422Z,2.60
2023-10-14T03:37:02.088Z,3.03
2023-10-14T03:38:12.803Z,2.35
2023-10-14T03:39:40.249Z,2.85
2023-10-14T03:41:10.300Z,2.67
2023-10-14T03:42:17.013Z,2.30
2023-10-14T03:43:20.757Z,2.60
2023-10-14T03:44:25.518Z,2.92
2023-10-14T03:45:30.569Z,2.97
2023-10-14T03:46:35.829Z,3.13
2023-10-14T03:47:38.115Z,3.15
2023-10-14T03:48:47.276Z,3.58
2023-10-14T03:49:57.445Z,3.47
2023-10-14T03:51:04.304Z,3.28
2023-10-14T03:52:11.385Z,3.20
2023-10-14T03:53:13.648Z,2.83
2023-10-14T03:54:24.704Z,2.67
2023-10-14T03:55:27.582Z,3.53
2023-10-14T03:56:32.803Z,3.08
2023-10-14T03:57:38.764Z,3.45
2023-10-14T03:58:42.633Z,2.85
2023-10-14T03:59:47.950Z,2.75
2023-10-14T04:00:51.659Z,3.15
2023-10-14T04:02:00.624Z,3.10
2023-10-14T04:03:03.255Z,2.75
2023-10-14T04:04:16.477Z,3.30
2023-10-14T04:05:20.439Z,2.95
2023-10-14T04:06:24.433Z,2.78
2023-10-14T04:07:29.726Z,3.67
2023-10-14T04:08:32.233Z,3.10
2023-10-14T04:09:38.807Z,3.55
2023-10-14T04:10:55.546Z,3.03
2023-10-14T04:12:02.293Z,2.90
2023-10-14T04:13:07.550Z,3.30
2023-10-14T04:14:14.888Z,3.78
2023-10-14T04:15:32.474Z,3.85
2023-10-14T04:16:48.872Z,3.45
2023-10-14T04:17:56.424Z,3.92
2023-10-14T04:19:05.870Z,3.38
2023-10-14T04:20:23.144Z,3.55
2023-10-14T04:21:36.830Z,4.35
2023-10-14T04:22:40.131Z,4.95
2023-10-14T04:24:00.811Z,3.50
2023-10-14T04:25:19.208Z,3.17
2023-10-14T04:26:23.251Z,3.08
2023-10-14T04:27:34.741Z,4.05
2023-10-14T04:28:40.760Z,3.17
2023-10-14T04:29:52.469Z,3.05
2023-10-14T04:31:01.531Z,3.28
2023-10-14T04:32:15.141Z,3.53
2023-10-14T04:33:25.334Z,3.63
2023-10-14T04:34:27.495Z,3.70
2023-10-14T04:35:33.152Z,3.38
2023-10-14T04:36:38.472Z,3.50
2023-10-14T04:37:52.996Z,3.28
2023-10-14T04:39:06.672Z,3.15
2023-10-14T04:40:31.131Z,4.10
2023-10-14T04:41:33.187Z,3.60
2023-10-14T04:42:44.071Z,3.83
2023-10-14T04:44:02.433Z,3.38
2023-10-14T04:45:08.451Z,3.58
2023-10-14T04:46:17.083Z,3.90
2023-10-14T04:47:37.168Z,4.15
2023-10-14T04:48:40.834Z,3.38
2023-10-14T04:49:44.863Z,3.20
2023-10-14T04:50:47.221Z,3.90
2023-10-14T04:51:50.218Z,3.42
2023-10-14T04:52:53.223Z,3.47
2023-10-14T04:53:55.145Z,3.95
2023-10-14T04:55:09.352Z,3.55
2023-10-14T04:56:11.943Z,3.20
2023-10-14T04:57:21.821Z,2.95
2023-10-14T04:58:27.067Z,3.00
2023-10-14T04:59:31.757Z,3.78
2023-10-14T05:00:40.222Z,3.03
2023-10-14T05:01:43.918Z,3.70
2023-10-14T05:02:46.533Z,2.88
2023-10-14T05:03:51.664Z,3.90
2023-10-14T05:04:54.209Z,3.55
2023-10-14T05:05:57.577Z,4.50
2023-10-14T05:07:06.101Z,3.42
2023-10-14T05:08:08.790Z,3.13
2023-10-14T05:09:29.397Z,3.58
2023-10-14T05:10:32.035Z,3.63
2023-10-14T05:11:37.841Z,4.13
2023-10-14T05:12:53.219Z,3.80
2023-10-14T05:14:08.800Z,3.60
2023-10-14T05:15:21.835Z,5.15
2023-10-14T05:16:24.054Z,2.92
2023-10-14T05:17:28.309Z,4.30
2023-10-14T05:18:30.559Z,3.92
2023-10-14T05:19:42.968Z,3.67
2023-10-14T05:20:57.527Z,3.72
2023-10-14T05:22:05.445Z,3.70
2023-10-14T05:23:11.689Z,3.88
2023-10-14T05:24:14.270Z,3.58
2023-10-14T05:25:28.938Z,3.45
2023-10-14T05:26:37.071Z,3.50
2023-10-14T05:27:47.598Z,3.63
2023-10-14T05:28:50.891Z,5.65
2023-10-14T05:29:53.122Z,3.70
2023-10-14T05:30:58.788Z,4.05
2023-10-14T05:32:11.364Z,3.83
2023-10-14T05:33:16.168Z,4.35
2023-10-14T05:34:22.757Z,3.63
2023-10-14T05:35:26.784Z,5.28
2023-10-14T05:36:28.838Z,4.45
2023-10-14T05:37:32.352Z,4.20
2023-10-14T05:38:35.525Z,3.65
2023-10-14T05:39:39.139Z,4.15
2023-10-14T05:40:43.115Z,3.95
2023-10-14T05:41:45.352Z,3.80
2023-10-14T05:42:47.457Z,4.32
2023-10-14T05:43:52.405Z,3.97
2023-10-14T05:44:59.026Z,4.05
2023-10-14T05:46:09.866Z,4.32
2023-10-14T05:47:11.956Z,4.15
2023-10-14T05:48:15.153Z,4.45
2023-10-14T05:49:17.462Z,3.58
2023-10-14T05:50:21.559Z,4.25
2023-10-14T05:51:24.116Z,4.05
2023-10-14T05:52:27.283Z,4.50
2023-10-14T05:53:30.830Z,4.30
2023-10-14T05:54:33.957Z,4.50
2023-10-14T05:55:36.688Z,3.97
2023-10-14T05:56:40.783Z,4.00
2023-10-14T05:57:42.982Z,3.75
2023-10-14T05:58:47.393Z,4.75
2023-10-14T05:59:50.211Z,5.35
2023-10-14T06:00:52.716Z,4.10
2023-10-14T06:01:58.307Z,4.05
2023-10-14T06:03:00.880Z,4.65
2023-10-14T06:04:05.117Z,3.92
2023-10-14T06:05:08.076Z,4.65
2023-10-14T06:06:11.960Z,4.20
2023-10-14T06:07:14.157Z,3.60
2023-10-14T06:08:19.258Z,4.32
2023-10-14T06:09:22.887Z,4.30
2023-10-14T06:10:26.354Z,4.20
2023-10-14T06:11:28.342Z,4.70
2023-10-14T06:12:31.258Z,4.90
2023-10-14T06:13:33.512Z,4.20
2023-10-14T06:14:36.532Z,4.50
2023-10-14T06:15:39.720Z,4.47
2023-10-14T06:16:42.799Z,4.40
2023-10-14T06:17:47.170Z,4.38
2023-10-14T06:18:50.159Z,3.47
2023-10-14T06:19:54.589Z,4.30
2023-10-14T06:20:59.081Z,4.10
2023-10-14T06:22:01.075Z,3.40
2023-10-14T06:23:03.152Z,3.50
2023-10-14T06:24:11.872Z,4.30
2023-10-14T06:25:16.877Z,3.55
2023-10-14T06:26:21.746Z,4.50
2023-10-14T06:27:24.219Z,4.22
2023-10-14T06:28:29.052Z,3.05
2023-10-14T06:29:31.094Z,4.95
2023-10-14T06:30:34.465Z,4.00
2023-10-14T06:31:39.050Z,4.80
2023-10-14T06:32:41.182Z,3.70
2023-10-14T06:33:45.866Z,3.85
2023-10-14T06:34:50.880Z,4.13
2023-10-14T06:35:53.909Z,3.65
2023-10-14T06:36:56.716Z,4.45
2023-10-14T06:38:00.566Z,4.05
2023-10-14T06:39:14.405Z,3.85
2023-10-14T06:40:21.037Z,4.32
2023-10-14T06:41:25.139Z,4.25
2023-10-14T06:42:28.802Z,4.55
2023-10-14T06:43:35.162Z,4.50
2023-10-14T06:44:37.694Z,3.05
2023-10-14T06:45:41.085Z,3.40
2023-10-14T06:46:46.246Z,3.90
2023-10-14T06:47:52.639Z,3.90
2023-10-14T06:48:56.816Z,3.65
2023-10-14T06:49:59.182Z,4.72
2023-10-14T06:51:02.591Z,3.20
2023-10-14T06:52:05.883Z,4.07
2023-10-14T06:53:09.708Z,4.35
2023-10-14T06:54:15.303Z,3.90
2023-10-14T06:55:23.341Z,3.38
2023-10-14T06:56:28.376Z,4.22
2023-10-14T06:57:31.424Z,3.85
2023-10-14T06:58:34.554Z,3.83
2023-10-14T06:59:37.333Z,5.05
2023-10-14T07:00:41.269Z,4.47
2023-10-14T07:01:44.411Z,4.10
2023-10-14T07:02:47.620Z,3.72
2023-10-14T07:03:51.908Z,5.43
2023-10-14T07:04:56.990Z,3.58
2023-10-14T07:05:59.802Z,3.53
2023-10-14T07:07:04.475Z,3.70
2023-10-14T07:08:09.112Z,3.85
2023-10-14T07:09:19.227Z,3.42
2023-10-14T07:10:28.820Z,3.90
2023-10-14T07:11:31.850Z,4.10
2023-10-14T07:12:38.945Z,3.92
2023-10-14T07:13:43.417Z,3.80
2023-10-14T07:14:46.059Z,3.33
2023-10-14T07:15:50.057Z,3.25
2023-10-14T07:16:53.173Z,3.00
2023-10-14T07:17:55.658Z,2.80
2023-10-14T07:18:58.765Z,2.67
2023-10-14T07:20:02.420Z,3.83
2023-10-14T07:21:09.884Z,3.47
2023-10-14T07:22:12.103Z,3.45
2023-10-14T07:23:15.114Z,2.90
2023-10-14T07:24:18.198Z,3.90
2023-10-14T07:25:21.814Z,2.97
2023-10-14T07:26:23.997Z,3.58
2023-10-14T07:27:26.298Z,2.97
2023-10-14T07:28:29.436Z,3.35
2023-10-14T07:29:31.696Z,3.25
2023-10-14T07:30:36.121Z,3.42
2023-10-14T07:31:39.320Z,3.90
2023-10-14T07:32:43.858Z,3.00
2023-10-14T07:33:47.023Z,2.88
2023-10-14T07:34:52.284Z,3.60
2023-10-14T07:36:00.261Z,3.30
2023-10-14T07:37:04.241Z,3.15
2023-10-14T07:38:07.340Z,3.63
2023-10-14T07:39:29.037Z,3.30
2023-10-14T07:40:35.012Z,3.40
2023-10-14T07:41:37.366Z,4.07
2023-10-14T07:42:40.675Z,3.10
2023-10-14T07:43:42.797Z,3.65
2023-10-14T07:44:45.835Z,2.22
2023-10-14T07:45:48.078Z,4.00
2023-10-14T07:46:50.430Z,3.00
2023-10-14T07:47:53.525Z,2.90
2023-10-14T07:48:55.580Z,3.30
2023-10-14T07:49:58.644Z,3.83
2023-10-14T07:51:14.108Z,3.60
2023-10-14T07:52:27.203Z,3.10
2023-10-14T07:53:29.148Z,4.38
2023-10-14T07:54:32.443Z,3.38
2023-10-14T07:55:36.663Z,4.32
2023-10-14T07:56:39.718Z,3.58
2023-10-14T07:57:42.008Z,3.55
2023-10-14T07:58:44.971Z,3.65
2023-10-14T07:59:46.912Z,3.33
2023-10-14T08:00:51.163Z,3.28
2023-10-14T08:01:54.196Z,3.55
2023-10-14T08:02:56.485Z,3.50
2023-10-14T08:03:59.626Z,3.67
2023-10-14T08:05:01.670Z,3.67
2023-10-14T08:06:11.609Z,4.25
2023-10-14T08:07:13.720Z,3.10
2023-10-14T08:08:16.767Z,3.50
2023-10-14T08:09:26.032Z,3.58
2023-10-14T08:10:29.447Z,3.20
2023-10-14T08:11:37.782Z,3.38
2023-10-14T08:12:41.385Z,3.25
2023-10-14T08:13:44.380Z,3.30
2023-10-14T08:14:48.032Z,3.28
2023-10-14T08:15:51.867Z,3.45
2023-10-14T08:16:55.012Z,3.90
2023-10-14T08:17:59.437Z,3.50
2023-10-14T08:19:07.628Z,2.97
2023-10-14T08:20:13.770Z,3.83
2023-10-14T08:21:18.099Z,3.55
2023-10-14T08:22:21.978Z,5.93
2023-10-14T08:23:28.354Z,3.03
2023-10-14T08:24:30.462Z,4.78
2023-10-14T08:25:35.521Z,4.25
2023-10-14T08:26:37.556Z,3.72
2023-10-14T08:27:40.979Z,3.60
2023-10-14T08:28:44.003Z,3.17
2023-10-14T08:29:47.878Z,4.38
2023-10-14T08:30:52.033Z,3.50
2023-10-14T08:31:55.482Z,3.80
2023-10-14T08:32:58.261Z,4.43
2023-10-14T08:34:02.721Z,4.25
2023-10-14T08:35:15.988Z,3.33
2023-10-14T08:36:20.503Z,3.40
2023-10-14T08:37:22.610Z,3.95
2023-10-14T08:38:28.472Z,5.20
2023-10-14T08:39:32.452Z,3.70
2023-10-14T08:40:35.855Z,4.22
2023-10-14T08:41:38.611Z,3.80
2023-10-14T08:42:41.538Z,4.38
2023-10-14T08:43:50.366Z,3.53
2023-10-14T08:44:53.858Z,4.07
2023-10-14T08:45:57.101Z,3.63
2023-10-14T08:47:03.800Z,4.70
2023-10-14T08:48:12.626Z,4.85
2023-10-14T08:49:15.252Z,4.25
2023-10-14T08:50:19.922Z,4.30
2023-10-14T08:51:36.330Z,3.80
2023-10-14T08:52:52.623Z,3.78
2023-10-14T08:53:57.655Z,5.38
2023-10-14T08:55:00.026Z,3.80
2023-10-14T08:56:03.449Z,3.47
2023-10-14T08:57:06.843Z,4.70
2023-10-14T08:58:14.846Z,3.83
2023-10-14T08:59:17.838Z,4.20
2023-10-14T09:00:25.118Z,4.50
2023-10-14T09:01:27.872Z,4.03
2023-10-14T09:02:30.506Z,3.88
2023-10-14T09:03:33.638Z,3.47
2023-10-14T09:04:36.391Z,4.15
2023-10-14T09:05:41.220Z,4.88
2023-10-14T09:06:44.493Z,4.15
2023-10-14T09:07:47.455Z,3.80
2023-10-14T09:08:53.992Z,4.50
2023-10-14T09:09:57.198Z,4.03
2023-10-14T09:11:00.177Z,4.60
2023-10-14T09:12:12.001Z,3.85
2023-10-14T09:13:21.235Z,3.75
2023-10-14T09:14:24.265Z,4.40
2023-10-14T09:15:28.688Z,4.03
2023-10-14T09:16:33.677Z,4.43
2023-10-14T09:17:37.363Z,4.53
2023-10-14T09:18:57.727Z,3.95
2023-10-14T09:20:00.629Z,4.32
2023-10-14T09:21:06.474Z,4.60
2023-10-14T09:22:20.406Z,4.07
2023-10-14T09:23:28.521Z,3.92
2023-10-14T09:24:35.516Z,3.90
2023-10-14T09:25:42.412Z,3.40
2023-10-14T09:26:45.831Z,4.05
2023-10-14T09:27:50.056Z,3.90
2023-10-14T09:28:53.404Z,4.30
2023-10-14T09:29:58.258Z,4.40
2023-10-14T09:31:03.530Z,3.95
2023-10-14T09:32:06.766Z,4.00
2023-10-14T09:33:08.963Z,4.60
2023-10-14T09:34:23.393Z,3.78
2023-10-14T09:35:30.534Z,3.90
2023-10-14T09:36:37.085Z,3.78
2023-10-14T09:37:40.921Z,3.65
2023-10-14T09:38:45.079Z,3.78
2023-10-14T09:40:00.722Z,4.15
2023-10-14T09:41:08.422Z,3.78
2023-10-14T09:42:13.719Z,3.85
2023-10-14T09:43:18.286Z,4.15
2023-10-14T09:44:21.473Z,4.18
2023-10-14T09:45:25.494Z,4.60
2023-10-14T09:46:28.759Z,4.78
2023-10-14T09:47:32.178Z,4.10
2023-10-14T09:48:36.029Z,4.35
2023-10-14T09:49:40.362Z,4.47
2023-10-14T09:50:44.012Z,3.95
2023-10-14T09:51:49.432Z,4.50
2023-10-14T09:52:54.028Z,4.20
2023-10-14T09:53:58.144Z,3.53
2023-10-14T09:55:00.924Z,4.28
2023-10-14T09:56:07.255Z,4.40
2023-10-14T09:57:11.501Z,3.80
2023-10-14T09:58:19.343Z,5.03
2023-10-14T09:59:22.674Z,4.43
2023-10-14T10:00:27.010Z,4.28
2023-10-14T10:01:29.130Z,4.47
2023-10-14T10:02:33.383Z,4.10
2023-10-14T10:03:40.501Z,3.85
2023-10-14T10:04:49.773Z,4.40
2023-10-14T10:06:05.280Z,3.75
2023-10-14T10:07:20.953Z,3.53
2023-10-14T10:08:44.248Z,4.00
2023-10-14T10:10:12.405Z,3.65
2023-10-14T10:11:24.381Z,3.53
2023-10-14T10:12:31.750Z,3.72
2023-10-14T10:13:36.760Z,4.35
2023-10-14T10:14:43.889Z,4.13
2023-10-14T10:15:46.991Z,3.60
2023-10-14T10:16:53.544Z,3.90
2023-10-14T10:17:58.003Z,3.75
2023-10-14T10:19:02.345Z,4.18
2023-10-14T10:20:10.471Z,3.55
2023-10-14T10:21:13.535Z,3.80
2023-10-14T10:22:18.527Z,3.80
2023-10-14T10:23:23.402Z,3.55
2023-10-14T10:24:35.765Z,3.50
2023-10-14T10:25:53.852Z,5.05
2023-10-14T10:27:06.544Z,3.60
2023-10-14T10:28:41.095Z,3.60
2023-10-14T10:29:46.784Z,4.47
2023-10-14T10:30:50.455Z,4.35
2023-10-14T10:32:07.695Z,3.70
2023-10-14T10:33:11.994Z,3.70
2023-10-14T10:34:15.184Z,4.10
2023-10-14T10:35:20.741Z,3.72
2023-10-14T10:36:29.241Z,3.28
2023-10-14T10:37:32.755Z,3.50
2023-10-14T10:38:39.640Z,3.17
2023-10-14T10:39:44.731Z,3.60
2023-10-14T10:40:46.854Z,3.65
2023-10-14T10:41:52.726Z,4.65
2023-10-14T10:42:58.458Z,3.78
2023-10-14T10:44:03.903Z,4.20
2023-10-14T10:45:10.011Z,3.25
2023-10-14T10:46:45.404Z,4.40
2023-10-14T10:47:53.437Z,3.63
2023-10-14T10:48:56.679Z,3.80
2023-10-14T10:50:00.585Z,4.03
2023-10-14T10:51:04.159Z,3.40
2023-10-14T10:52:15.682Z,3.30
2023-10-14T10:53:23.515Z,4.22
2023-10-14T10:54:25.777Z,3.90
2023-10-14T10:55:30.020Z,3.65
2023-10-14T10:56:35.270Z,3.55
2023-10-14T10:57:39.590Z,3.30
2023-10-14T10:58:44.292Z,4.10
2023-10-14T10:59:47.283Z,3.45
2023-10-14T11:00:51.240Z,4.80
2023-10-14T11:01:55.951Z,3.35
2023-10-14T11:02:59.498Z,3.53
2023-10-14T11:04:04.315Z,3.78
2023-10-14T11:05:08.267Z,4.20
2023-10-14T11:06:14.811Z,4.72
2023-10-14T11:07:20.483Z,3.85
2023-10-14T11:08:24.070Z,6.25
2023-10-14T11:09:27.240Z,3.47
2023-10-14T11:10:32.205Z,3.08
2023-10-14T11:11:38.825Z,3.33
2023-10-14T11:12:40.789Z,3.90
2023-10-14T11:13:44.088Z,3.88
2023-10-14T11:14:46.258Z,3.63
2023-10-14T11:15:51.328Z,4.00
2023-10-14T11:16:59.276Z,3.38
2023-10-14T11:18:02.822Z,3.42
2023-10-14T11:19:08.400Z,3.60
2023-10-14T11:20:16.118Z,3.38
2023-10-14T11:21:20.318Z,4.45
2023-10-14T11:22:22.531Z,3.17
2023-10-14T11:23:26.096Z,3.88
2023-10-14T11:24:28.252Z,2.42
2023-10-14T11:25:32.772Z,3.67
2023-10-14T11:26:36.668Z,2.47
2023-10-14T11:27:42.896Z,3.00
2023-10-14T11:28:46.664Z,2.30
2023-10-14T11:29:49.792Z,3.20
2023-10-14T11:30:56.668Z,3.17
2023-10-14T11:32:03.867Z,2.55
2023-10-14T11:33:10.693Z,2.80
2023-10-14T11:34:14.758Z,2.83
2023-10-14T11:35:17.365Z,3.28
2023-10-14T11:36:27.648Z,2.97
2023-10-14T11:37:34.100Z,3.00
2023-10-14T11:38:45.036Z,2.35
2023-10-14T11:39:47.553Z,3.13
2023-10-14T11:40:51.071Z,3.10
2023-10-14T11:41:54.217Z,2.80
2023-10-14T11:42:56.619Z,2.35
2023-10-14T11:43:59.627Z,2.97
2023-10-14T11:45:01.892Z,4.55
2023-10-14T11:46:05.104Z,3.00
2023-10-14T11:47:07.673Z,2.55
2023-10-14T11:48:22.091Z,2.53
2023-10-14T11:49:25.196Z,2.40
2023-10-14T11:50:29.497Z,2.53
2023-10-14T11:51:31.549Z,2.63
2023-10-14T11:52:34.711Z,2.55
2023-10-14T11:53:40.241Z,2.75
2023-10-14T11:54:43.297Z,3.00
2023-10-14T11:55:45.967Z,2.60
2023-10-14T11:56:50.577Z,4.35
2023-10-14T11:57:55.115Z,2.72
2023-10-14T11:58:58.376Z,2.47
2023-10-14T12:00:01.145Z,2.72
2023-10-14T12:01:05.241Z,2.17
2023-10-14T12:02:08.289Z,2.60
2023-10-14T12:03:10.593Z,2.95
2023-10-14T12:04:16.119Z,2.22
2023-10-14T12:05:20.329Z,2.60
2023-10-14T12:06:23.693Z,2.75
2023-10-14T12:07:25.667Z,2.95
2023-10-14T12:08:30.138Z,3.92
2023-10-14T12:09:32.226Z,2.42
2023-10-14T12:10:35.137Z,2.63
2023-10-14T12:11:42.729Z,2.78
2023-10-14T12:12:53.292Z,2.78
2023-10-14T12:13:56.326Z,2.30
2023-10-14T12:14:59.405Z,2.20
2023-10-14T12:16:06.356Z,2.47
2023-10-14T12:17:08.484Z,2.80
2023-10-14T12:18:15.146Z,2.30
2023-10-14T12:19:19.645Z,2.45
2023-10-14T12:20:23.678Z,2.85
2023-10-14T12:21:25.657Z,2.70
2023-10-14T12:22:28.732Z,2.45
2023-10-14T12:23:32.575Z,2.97
2023-10-14T12:24:35.509Z,3.03
2023-10-14T12:25:37.698Z,2.80
2023-10-14T12:26:45.806Z,2.85
2023-10-14T12:27:49.728Z,2.90
2023-10-14T12:28:52.835Z,2.83
2023-10-14T12:29:54.953Z,3.45
2023-10-14T12:31:00.188Z,2.72
2023-10-14T12:32:15.644Z,2.40
2023-10-14T12:33:21.413Z,2.80
2023-10-14T12:34:23.516Z,2.47
2023-10-14T12:35:30.658Z,2.35
2023-10-14T12:36:32.742Z,2.38
2023-10-14T12:37:35.750Z,2.80
2023-10-14T12:38:39.085Z,2.63
2023-10-14T12:39:45.007Z,2.65
2023-10-14T12:40:49.430Z,2.85
2023-10-14T12:41:54.207Z,2.80
2023-10-14T12:43:02.176Z,3.05
2023-10-14T12:44:09.700Z,2.72
2023-10-14T12:45:13.901Z,2.60
2023-10-14T12:46:20.806Z,3.47
2023-10-14T12:47:26.096Z,3.38
2023-10-14T12:48:28.506Z,3.28
2023-10-14T12:49:31.647Z,2.58
2023-10-14T12:50:34.356Z,2.65
2023-10-14T12:51:43.635Z,2.15
2023-10-14T12:52:50.976Z,3.35
2023-10-14T12:53:59.156Z,2.72
2023-10-14T12:55:09.695Z,2.92
2023-10-14T12:56:12.544Z,2.70
2023-10-14T12:57:15.896Z,3.03
2023-10-14T12:58:19.237Z,2.58
2023-10-14T12:59:26.017Z,2.63
2023-10-14T13:00:30.724Z,3.40
2023-10-14T13:01:34.939Z,2.80
2023-10-14T13:02:40.922Z,3.03
2023-10-14T13:03:47.293Z,2.42
2023-10-14T13:04:49.620Z,2.35
2023-10-14T13:05:54.176Z,2.75
2023-10-14T13:06:56.580Z,2.50
2023-10-14T13:08:00.714Z,2.88
2023-10-14T13:09:02.927Z,3.22
2023-10-14T13:10:10.163Z,2.95
2023-10-14T13:11:16.121Z,2.58
2023-10-14T13:12:19.757Z,3.33
2023-10-14T13:13:24.762Z,2.70
2023-10-14T13:14:29.261Z,2.40
2023-10-14T13:15:36.141Z,2.80
2023-10-14T13:16:39.610Z,3.00
2023-10-14T13:17:41.809Z,2.25
2023-10-14T13:18:46.206Z,2.40
2023-10-14T13:19:48.185Z,2.58
2023-10-14T13:20:52.156Z,2.53
2023-10-14T13:21:56.573Z,3.17
2023-10-14T13:23:05.103Z,2.65
2023-10-14T13:24:13.024Z,2.50
2023-10-14T13:25:18.901Z,3.15
2023-10-14T13:26:21.244Z,2.90
2023-10-14T13:27:24.253Z,2.95
2023-10-14T13:28:27.526Z,2.53
2023-10-14T13:29:30.489Z,3.08
2023-10-14T13:30:32.468Z,3.40
2023-10-14T13:31:35.604Z,2.83
2023-10-14T13:32:37.967Z,3.38
2023-10-14T13:33:42.879Z,3.00
2023-10-14T13:34:46.642Z,2.55
2023-10-14T13:35:49.834Z,2.75
2023-10-14T13:36:58.336Z,3.17
2023-10-14T13:38:02.282Z,2.38
2023-10-14T13:39:08.384Z,2.63
2023-10-14T13:40:12.277Z,2.30
2023-10-14T13:41:15.344Z,2.80
2023-10-14T13:42:18.459Z,2.75
2023-10-14T13:43:20.458Z,2.38
2023-10-14T13:44:24.848Z,2.60
2023-10-14T13:45:26.840Z,2.40
2023-10-14T13:46:30.014Z,2.22
2023-10-14T13:47:32.670Z,2.50
2023-10-14T13:48:35.873Z,2.03
2023-10-14T13:49:38.452Z,2.75
2023-10-14T13:50:42.865Z,2.10
2023-10-14T13:51:44.782Z,2.30
2023-10-14T13:52:52.414Z,2.30
2023-10-14T13:53:55.358Z,1.88
2023-10-14T13:54:57.432Z,2.47
2023-10-14T13:57:05.057Z,2.10
2023-10-14T13:58:12.662Z,2.10
2023-10-14T13:59:14.816Z,2.10
2023-10-14T14:00:37.079Z,1.98
2023-10-14T14:01:40.629Z,1.90
2023-10-14T14:02:44.031Z,2.30
2023-10-14T14:03:57.495Z,2.30
2023-10-14T14:05:05.250Z,1.83
2023-10-14T14:06:08.211Z,2.22
2023-10-14T14:07:11.368Z,1.80
2023-10-14T14:08:13.746Z,2.10
2023-10-14T14:09:23.302Z,2.05
2023-10-14T14:10:27.130Z,1.70
2023-10-14T14:11:30.552Z,1.77
2023-10-14T14:12:33.789Z,1.75
2023-10-14T14:13:39.699Z,1.90
2023-10-14T14:14:41.713Z,1.60
2023-10-14T14:15:46.072Z,1.48
2023-10-14T14:16:48.426Z,0.82
2023-10-14T14:17:51.899Z,1.10
2023-10-14T14:18:54.069Z,0.90
2023-10-14T14:19:57.279Z,0.95
2023-10-14T14:20:59.250Z,0.90
2023-10-14T14:22:02.571Z,1.25
2023-10-14T14:23:05.008Z,1.20
2023-10-14T14:24:08.700Z,1.25
2023-10-14T14:25:12.317Z,1.02
2023-10-14T14:26:20.593Z,1.00
2023-10-14T14:27:24.064Z,1.00
2023-10-14T14:28:27.226Z,0.80
2023-10-14T14:29:29.165Z,0.70
2023-10-14T14:30:33.287Z,0.93
2023-10-14T14:31:37.037Z,0.93
2023-10-14T14:32:40.121Z,0.82
2023-10-14T14:33:43.822Z,0.70
2023-10-14T14:34:47.005Z,0.80
2023-10-14T14:35:49.130Z,0.80
2023-10-14T14:36:52.143Z,0.85
2023-10-14T14:37:56.437Z,0.90